Flag for Denmark

Past Weather in 57°03'02.2"N, 9°55'29.0"E, Denmark — Yesterday and Last 2 Weeks

Currently: 68 °F. Scattered clouds. (Weather station: Aalborg Airport, Denmark). See more current weather

Past Weather in 57°03'02.2"N, 9°55'29.0"E — Graph

°F

57°03'02.2"N, 9°55'29.0"E Temperature Yesterday

Maximum temperature yesterday: 63 °F (at 11:50 am)
Minimum temperature yesterday: 52 °F (at 11:20 pm)
Average temperature yesterday: 59 °F

High & Low Weather Summary for the Past Weeks

 TemperatureHumidityPressure
High75 °F (May 19, 1:50 pm)100% (May 11, 2:20 am)30.27 "Hg (May 11, 2:20 am)
Low43 °F (May 11, 4:50 am)31% (May 17, 5:20 pm)29.86 "Hg (May 19, 4:50 pm)
Average60 °F66%30.05 "Hg
* Reported May 10 2:20 pm — May 25 2:20 pm, 57°03'02.2"N, 9°55'29.0"E. Weather by CustomWeather, © 2024

Note: Actual official high and low records may vary slightly from our data, if they occured in-between our weather recording intervals... More about our weather records

57°03'02.2"N, 9°55'29.0"E Weather History for the Previous 24 Hours

Scroll right to see more
 ConditionsComfort  
Time TempWeatherWind HumidityBarometerVisibility
2:20 pm
Sat, May 25
70 °FPartly sunny.8 mph60%30.12 "HgN/A
1:50 pm68 °FPartly sunny.8 mph60%30.12 "HgN/A
1:20 pm68 °FOvercast.6 mph64%30.12 "HgN/A
12:50 pm66 °FPartly sunny.5 mph68%30.12 "HgN/A
12:20 pm66 °FBroken clouds.6 mph64%30.12 "HgN/A
11:50 am63 °FPartly sunny.7 mph73%30.15 "HgN/A
11:20 am63 °FOvercast.7 mph73%30.15 "HgN/A
10:20 am63 °FPartly sunny.7 mph73%30.15 "HgN/A
9:50 am61 °FPassing clouds.5 mph72%30.15 "HgN/A
9:20 am61 °FBroken clouds.7 mph72%30.15 "HgN/A
8:50 am59 °FPartly sunny.6 mph77%30.15 "HgN/A
8:20 am57 °FOvercast.3 mph82%30.15 "HgN/A
7:50 am55 °FPartly sunny.2 mph88%30.15 "HgN/A
7:20 am55 °FPassing clouds.1 mph88%30.15 "HgN/A
6:50 am52 °FPassing clouds.2 mph94%30.15 "HgN/A
6:20 am50 °FScattered clouds.2 mph94%30.15 "HgN/A
5:50 am46 °FPassing clouds.No wind100%30.15 "HgN/A
5:20 am46 °FPassing clouds.No wind93%30.15 "Hg6 mi
4:50 am46 °FScattered clouds.No wind93%30.15 "Hg4 mi
4:20 am46 °FLight fog.No wind93%30.15 "HgN/A
4:01 am46 °FPassing clouds.1 mph93%30.15 "Hg4 mi
3:33 am46 °FFog.No wind93%30.15 "HgN/A
3:20 am46 °FClear.No wind93%30.15 "HgN/A
2:50 am48 °FClear.No wind94%30.15 "HgN/A
2:20 am50 °FClear.No wind94%30.18 "HgN/A
1:58 am48 °FClear.1 mph100%30.18 "Hg10 mi
1:20 am48 °FClear.2 mph87%30.18 "HgN/A
12:20 am52 °FClear.No wind88%30.18 "HgN/A
11:50 pm
Fri, May 24
52 °FClear.No wind88%30.18 "HgN/A
11:20 pm52 °FClear.No wind88%30.18 "HgN/A
10:20 pm55 °FClear.3 mph77%30.18 "HgN/A
9:50 pm57 °FClear.2 mph72%30.18 "HgN/A
9:20 pm59 °FClear.3 mph68%30.18 "HgN/A
8:20 pm61 °FClear.5 mph63%30.18 "HgN/A
7:50 pm61 °FClear.6 mph68%30.15 "HgN/A
7:20 pm63 °FClear.6 mph64%30.15 "HgN/A
6:50 pm63 °FPassing clouds.6 mph64%30.15 "HgN/A
6:20 pm63 °FPassing clouds.7 mph64%30.15 "HgN/A
5:50 pm63 °FPassing clouds.6 mph64%30.15 "HgN/A
5:20 pm63 °FPartly sunny.6 mph64%30.18 "HgN/A
4:50 pm63 °FOvercast.6 mph64%30.18 "HgN/A
4:20 pm63 °FPartly sunny.7 mph64%30.18 "HgN/A
Weather by CustomWeather, © 2024

See weather overview